sensor_id;sensor_type;location;lat;lon;timestamp;P1;durP1;ratioP1;P2;durP2;ratioP2
16073;SDS011;8141;52.664;5.074;2023-05-07T00:01:45;8.50;;;7.70;;
16073;SDS011;8141;52.664;5.074;2023-05-07T00:04:11;8.03;;;7.23;;
16073;SDS011;8141;52.664;5.074;2023-05-07T00:06:38;8.63;;;7.73;;
16073;SDS011;8141;52.664;5.074;2023-05-07T00:09:04;14.43;;;5.80;;
16073;SDS011;8141;52.664;5.074;2023-05-07T00:11:31;10.33;;;4.90;;
16073;SDS011;8141;52.664;5.074;2023-05-07T00:13:58;9.73;;;5.00;;
16073;SDS011;8141;52.664;5.074;2023-05-07T00:16:23;34.70;;;5.33;;
16073;SDS011;8141;52.664;5.074;2023-05-07T00:18:49;16.53;;;4.50;;
16073;SDS011;8141;52.664;5.074;2023-05-07T00:21:15;24.13;;;6.53;;
16073;SDS011;8141;52.664;5.074;2023-05-07T00:23:41;26.80;;;4.73;;
16073;SDS011;8141;52.664;5.074;2023-05-07T00:26:07;14.80;;;4.27;;
16073;SDS011;8141;52.664;5.074;2023-05-07T00:28:32;11.33;;;4.23;;
16073;SDS011;8141;52.664;5.074;2023-05-07T00:30:58;16.57;;;3.30;;
16073;SDS011;8141;52.664;5.074;2023-05-07T00:33:24;17.43;;;4.00;;
16073;SDS011;8141;52.664;5.074;2023-05-07T00:35:51;10.63;;;2.90;;
16073;SDS011;8141;52.664;5.074;2023-05-07T00:38:19;8.40;;;3.57;;
16073;SDS011;8141;52.664;5.074;2023-05-07T00:40:45;17.43;;;3.47;;
16073;SDS011;8141;52.664;5.074;2023-05-07T00:43:11;9.87;;;2.80;;
16073;SDS011;8141;52.664;5.074;2023-05-07T00:45:37;7.33;;;2.50;;
16073;SDS011;8141;52.664;5.074;2023-05-07T00:48:03;12.17;;;3.40;;
16073;SDS011;8141;52.664;5.074;2023-05-07T00:50:30;7.53;;;2.80;;
16073;SDS011;8141;52.664;5.074;2023-05-07T00:52:57;7.40;;;2.70;;
16073;SDS011;8141;52.664;5.074;2023-05-07T00:55:23;6.73;;;2.93;;
16073;SDS011;8141;52.664;5.074;2023-05-07T00:57:50;7.77;;;2.53;;
16073;SDS011;8141;52.664;5.074;2023-05-07T01:00:16;10.07;;;2.77;;
16073;SDS011;8141;52.664;5.074;2023-05-07T01:02:43;7.60;;;2.90;;
16073;SDS011;8141;52.664;5.074;2023-05-07T01:05:10;5.90;;;2.50;;
16073;SDS011;8141;52.664;5.074;2023-05-07T01:07:40;7.03;;;2.83;;
16073;SDS011;8141;52.664;5.074;2023-05-07T01:10:07;9.20;;;2.33;;
16073;SDS011;8141;52.664;5.074;2023-05-07T01:12:35;3.50;;;2.07;;
16073;SDS011;8141;52.664;5.074;2023-05-07T01:15:03;5.57;;;2.53;;
16073;SDS011;8141;52.664;5.074;2023-05-07T01:17:34;5.10;;;2.40;;
16073;SDS011;8141;52.664;5.074;2023-05-07T01:20:01;4.47;;;2.10;;
16073;SDS011;8141;52.664;5.074;2023-05-07T01:22:30;6.90;;;2.83;;
16073;SDS011;8141;52.664;5.074;2023-05-07T01:24:58;3.73;;;2.20;;
16073;SDS011;8141;52.664;5.074;2023-05-07T01:27:25;4.30;;;2.10;;
16073;SDS011;8141;52.664;5.074;2023-05-07T01:29:51;5.10;;;2.13;;
16073;SDS011;8141;52.664;5.074;2023-05-07T01:32:17;4.17;;;2.10;;
16073;SDS011;8141;52.664;5.074;2023-05-07T01:35:09;4.10;;;2.20;;
16073;SDS011;8141;52.664;5.074;2023-05-07T01:37:38;3.60;;;2.37;;
16073;SDS011;8141;52.664;5.074;2023-05-07T01:40:05;6.60;;;2.53;;
16073;SDS011;8141;52.664;5.074;2023-05-07T01:42:32;5.37;;;2.20;;
16073;SDS011;8141;52.664;5.074;2023-05-07T01:44:58;2.93;;;2.17;;
16073;SDS011;8141;52.664;5.074;2023-05-07T01:47:24;5.20;;;2.43;;
16073;SDS011;8141;52.664;5.074;2023-05-07T01:49:51;2.67;;;2.20;;
16073;SDS011;8141;52.664;5.074;2023-05-07T01:52:17;2.97;;;1.70;;
16073;SDS011;8141;52.664;5.074;2023-05-07T01:54:43;3.93;;;1.87;;
16073;SDS011;8141;52.664;5.074;2023-05-07T01:57:08;4.23;;;1.77;;
16073;SDS011;8141;52.664;5.074;2023-05-07T01:59:35;2.40;;;1.63;;
16073;SDS011;8141;52.664;5.074;2023-05-07T02:02:00;4.27;;;2.20;;
16073;SDS011;8141;52.664;5.074;2023-05-07T02:04:26;3.90;;;1.90;;
16073;SDS011;8141;52.664;5.074;2023-05-07T02:06:52;3.50;;;1.47;;
16073;SDS011;8141;52.664;5.074;2023-05-07T02:09:17;3.90;;;1.70;;
16073;SDS011;8141;52.664;5.074;2023-05-07T02:11:44;5.13;;;2.07;;
16073;SDS011;8141;52.664;5.074;2023-05-07T02:14:10;3.57;;;2.03;;
16073;SDS011;8141;52.664;5.074;2023-05-07T02:16:35;5.43;;;2.17;;
16073;SDS011;8141;52.664;5.074;2023-05-07T02:19:01;2.90;;;1.63;;
16073;SDS011;8141;52.664;5.074;2023-05-07T02:21:27;4.10;;;1.97;;
16073;SDS011;8141;52.664;5.074;2023-05-07T02:23:53;2.33;;;1.47;;
16073;SDS011;8141;52.664;5.074;2023-05-07T02:26:19;3.33;;;1.13;;
16073;SDS011;8141;52.664;5.074;2023-05-07T02:28:46;5.47;;;1.60;;
16073;SDS011;8141;52.664;5.074;2023-05-07T02:31:12;2.50;;;1.60;;
16073;SDS011;8141;52.664;5.074;2023-05-07T02:33:38;2.87;;;1.70;;
16073;SDS011;8141;52.664;5.074;2023-05-07T02:36:09;3.33;;;1.37;;
16073;SDS011;8141;52.664;5.074;2023-05-07T02:38:36;4.03;;;1.40;;
16073;SDS011;8141;52.664;5.074;2023-05-07T02:41:02;2.13;;;1.60;;
16073;SDS011;8141;52.664;5.074;2023-05-07T02:43:27;1.83;;;1.40;;
16073;SDS011;8141;52.664;5.074;2023-05-07T02:46:06;3.27;;;1.60;;
16073;SDS011;8141;52.664;5.074;2023-05-07T02:48:33;2.23;;;1.40;;
16073;SDS011;8141;52.664;5.074;2023-05-07T02:50:59;4.43;;;1.50;;
16073;SDS011;8141;52.664;5.074;2023-05-07T02:53:26;3.93;;;1.30;;
16073;SDS011;8141;52.664;5.074;2023-05-07T02:55:56;1.87;;;1.53;;
16073;SDS011;8141;52.664;5.074;2023-05-07T02:58:23;1.20;;;1.10;;
16073;SDS011;8141;52.664;5.074;2023-05-07T03:00:50;2.00;;;1.47;;
16073;SDS011;8141;52.664;5.074;2023-05-07T03:03:16;3.33;;;1.33;;
16073;SDS011;8141;52.664;5.074;2023-05-07T03:05:42;2.57;;;1.53;;
16073;SDS011;8141;52.664;5.074;2023-05-07T03:08:08;2.83;;;1.70;;
16073;SDS011;8141;52.664;5.074;2023-05-07T03:10:35;3.13;;;1.53;;
16073;SDS011;8141;52.664;5.074;2023-05-07T03:13:01;1.73;;;1.30;;
16073;SDS011;8141;52.664;5.074;2023-05-07T03:15:27;1.50;;;1.40;;
16073;SDS011;8141;52.664;5.074;2023-05-07T03:17:53;3.57;;;1.63;;
16073;SDS011;8141;52.664;5.074;2023-05-07T03:20:19;1.70;;;1.20;;
16073;SDS011;8141;52.664;5.074;2023-05-07T03:22:45;3.23;;;1.40;;
16073;SDS011;8141;52.664;5.074;2023-05-07T03:25:10;2.40;;;1.30;;
16073;SDS011;8141;52.664;5.074;2023-05-07T03:27:36;3.97;;;1.20;;
16073;SDS011;8141;52.664;5.074;2023-05-07T03:30:03;2.27;;;1.37;;
16073;SDS011;8141;52.664;5.074;2023-05-07T03:32:29;2.00;;;1.40;;
16073;SDS011;8141;52.664;5.074;2023-05-07T03:34:55;2.53;;;1.40;;
16073;SDS011;8141;52.664;5.074;2023-05-07T03:37:21;1.83;;;1.23;;
16073;SDS011;8141;52.664;5.074;2023-05-07T03:39:47;2.70;;;1.40;;
16073;SDS011;8141;52.664;5.074;2023-05-07T03:42:12;1.60;;;1.00;;
16073;SDS011;8141;52.664;5.074;2023-05-07T03:44:39;3.50;;;1.00;;
16073;SDS011;8141;52.664;5.074;2023-05-07T03:47:05;1.93;;;1.37;;
16073;SDS011;8141;52.664;5.074;2023-05-07T03:49:31;1.97;;;1.20;;
16073;SDS011;8141;52.664;5.074;2023-05-07T03:51:57;2.33;;;1.10;;
16073;SDS011;8141;52.664;5.074;2023-05-07T03:54:22;3.13;;;1.27;;
16073;SDS011;8141;52.664;5.074;2023-05-07T03:56:48;2.60;;;0.83;;
16073;SDS011;8141;52.664;5.074;2023-05-07T03:59:14;1.77;;;1.10;;
16073;SDS011;8141;52.664;5.074;2023-05-07T04:01:40;2.63;;;1.00;;
16073;SDS011;8141;52.664;5.074;2023-05-07T04:04:05;2.13;;;1.00;;
16073;SDS011;8141;52.664;5.074;2023-05-07T04:06:31;3.00;;;1.43;;
16073;SDS011;8141;52.664;5.074;2023-05-07T04:08:57;1.50;;;1.10;;
16073;SDS011;8141;52.664;5.074;2023-05-07T04:11:23;2.40;;;1.30;;
16073;SDS011;8141;52.664;5.074;2023-05-07T04:13:48;1.90;;;1.20;;
16073;SDS011;8141;52.664;5.074;2023-05-07T04:16:14;2.70;;;1.00;;
16073;SDS011;8141;52.664;5.074;2023-05-07T04:18:40;2.17;;;1.20;;
16073;SDS011;8141;52.664;5.074;2023-05-07T04:21:13;1.77;;;1.23;;
16073;SDS011;8141;52.664;5.074;2023-05-07T04:23:45;2.83;;;0.97;;
16073;SDS011;8141;52.664;5.074;2023-05-07T04:26:12;1.53;;;1.20;;
16073;SDS011;8141;52.664;5.074;2023-05-07T04:28:38;1.73;;;1.10;;
16073;SDS011;8141;52.664;5.074;2023-05-07T04:31:05;1.90;;;0.93;;
16073;SDS011;8141;52.664;5.074;2023-05-07T04:33:31;1.97;;;1.10;;
16073;SDS011;8141;52.664;5.074;2023-05-07T04:35:58;1.50;;;0.90;;
16073;SDS011;8141;52.664;5.074;2023-05-07T04:38:28;4.13;;;1.50;;
16073;SDS011;8141;52.664;5.074;2023-05-07T04:40:55;2.00;;;1.30;;
16073;SDS011;8141;52.664;5.074;2023-05-07T04:43:22;2.60;;;1.10;;
16073;SDS011;8141;52.664;5.074;2023-05-07T04:45:47;2.93;;;1.10;;
16073;SDS011;8141;52.664;5.074;2023-05-07T04:48:17;3.13;;;1.43;;
16073;SDS011;8141;52.664;5.074;2023-05-07T04:50:49;1.63;;;1.10;;
16073;SDS011;8141;52.664;5.074;2023-05-07T04:53:16;2.30;;;1.10;;
16073;SDS011;8141;52.664;5.074;2023-05-07T04:55:42;1.47;;;1.13;;
16073;SDS011;8141;52.664;5.074;2023-05-07T04:58:09;1.47;;;1.13;;
16073;SDS011;8141;52.664;5.074;2023-05-07T05:00:37;2.10;;;1.17;;
16073;SDS011;8141;52.664;5.074;2023-05-07T05:03:04;2.57;;;1.20;;
16073;SDS011;8141;52.664;5.074;2023-05-07T05:05:31;3.03;;;1.27;;
16073;SDS011;8141;52.664;5.074;2023-05-07T05:07:57;1.47;;;1.13;;
16073;SDS011;8141;52.664;5.074;2023-05-07T05:10:23;2.30;;;1.13;;
16073;SDS011;8141;52.664;5.074;2023-05-07T05:12:49;1.03;;;0.93;;
16073;SDS011;8141;52.664;5.074;2023-05-07T05:15:15;1.30;;;1.10;;
16073;SDS011;8141;52.664;5.074;2023-05-07T05:17:41;2.00;;;1.20;;
16073;SDS011;8141;52.664;5.074;2023-05-07T05:20:07;3.50;;;1.60;;
16073;SDS011;8141;52.664;5.074;2023-05-07T05:22:34;1.43;;;1.13;;
16073;SDS011;8141;52.664;5.074;2023-05-07T05:25:00;2.57;;;1.13;;
16073;SDS011;8141;52.664;5.074;2023-05-07T05:27:26;2.63;;;1.20;;
16073;SDS011;8141;52.664;5.074;2023-05-07T05:29:51;2.03;;;1.20;;
16073;SDS011;8141;52.664;5.074;2023-05-07T05:32:17;2.33;;;1.40;;
16073;SDS011;8141;52.664;5.074;2023-05-07T05:34:43;2.27;;;1.30;;
16073;SDS011;8141;52.664;5.074;2023-05-07T05:37:09;1.93;;;1.30;;
16073;SDS011;8141;52.664;5.074;2023-05-07T05:39:35;1.90;;;1.37;;
16073;SDS011;8141;52.664;5.074;2023-05-07T05:42:01;3.50;;;1.70;;
16073;SDS011;8141;52.664;5.074;2023-05-07T05:44:27;2.87;;;1.30;;
16073;SDS011;8141;52.664;5.074;2023-05-07T05:46:52;2.67;;;1.33;;
16073;SDS011;8141;52.664;5.074;2023-05-07T05:49:20;1.60;;;1.50;;
16073;SDS011;8141;52.664;5.074;2023-05-07T05:51:46;2.33;;;1.60;;
16073;SDS011;8141;52.664;5.074;2023-05-07T05:54:12;5.57;;;1.50;;
16073;SDS011;8141;52.664;5.074;2023-05-07T05:56:38;2.53;;;1.50;;
16073;SDS011;8141;52.664;5.074;2023-05-07T05:59:03;6.03;;;1.77;;
16073;SDS011;8141;52.664;5.074;2023-05-07T06:01:29;4.37;;;1.63;;
16073;SDS011;8141;52.664;5.074;2023-05-07T06:03:55;4.13;;;1.80;;
16073;SDS011;8141;52.664;5.074;2023-05-07T06:06:21;2.20;;;1.50;;
16073;SDS011;8141;52.664;5.074;2023-05-07T06:08:47;3.17;;;1.90;;
16073;SDS011;8141;52.664;5.074;2023-05-07T06:11:13;2.83;;;1.50;;
16073;SDS011;8141;52.664;5.074;2023-05-07T06:13:38;2.57;;;1.57;;
16073;SDS011;8141;52.664;5.074;2023-05-07T06:16:04;3.13;;;1.50;;
16073;SDS011;8141;52.664;5.074;2023-05-07T06:18:31;2.23;;;1.50;;
16073;SDS011;8141;52.664;5.074;2023-05-07T06:20:56;2.03;;;1.30;;
16073;SDS011;8141;52.664;5.074;2023-05-07T06:23:22;1.93;;;1.30;;
16073;SDS011;8141;52.664;5.074;2023-05-07T06:25:48;2.17;;;1.43;;
16073;SDS011;8141;52.664;5.074;2023-05-07T06:28:17;1.57;;;1.30;;
16073;SDS011;8141;52.664;5.074;2023-05-07T06:30:43;1.83;;;1.53;;
16073;SDS011;8141;52.664;5.074;2023-05-07T06:33:10;4.20;;;1.70;;
16073;SDS011;8141;52.664;5.074;2023-05-07T06:35:35;1.57;;;1.30;;
16073;SDS011;8141;52.664;5.074;2023-05-07T06:38:01;2.10;;;1.33;;
16073;SDS011;8141;52.664;5.074;2023-05-07T06:40:27;2.23;;;1.60;;
16073;SDS011;8141;52.664;5.074;2023-05-07T06:42:52;1.63;;;1.53;;
16073;SDS011;8141;52.664;5.074;2023-05-07T06:45:19;1.83;;;1.70;;
16073;SDS011;8141;52.664;5.074;2023-05-07T06:47:45;3.53;;;1.80;;
16073;SDS011;8141;52.664;5.074;2023-05-07T06:50:11;3.07;;;1.40;;
16073;SDS011;8141;52.664;5.074;2023-05-07T06:52:37;2.40;;;1.70;;
16073;SDS011;8141;52.664;5.074;2023-05-07T06:55:02;3.83;;;1.77;;
16073;SDS011;8141;52.664;5.074;2023-05-07T06:57:29;1.90;;;1.70;;
16073;SDS011;8141;52.664;5.074;2023-05-07T06:59:54;1.73;;;1.47;;
16073;SDS011;8141;52.664;5.074;2023-05-07T07:02:20;2.10;;;1.53;;
16073;SDS011;8141;52.664;5.074;2023-05-07T07:04:46;1.97;;;1.50;;
16073;SDS011;8141;52.664;5.074;2023-05-07T07:07:12;1.93;;;1.53;;
16073;SDS011;8141;52.664;5.074;2023-05-07T07:09:38;1.97;;;1.57;;
16073;SDS011;8141;52.664;5.074;2023-05-07T07:12:04;3.83;;;2.10;;
16073;SDS011;8141;52.664;5.074;2023-05-07T07:14:29;2.40;;;1.63;;
16073;SDS011;8141;52.664;5.074;2023-05-07T07:16:55;2.27;;;2.03;;
16073;SDS011;8141;52.664;5.074;2023-05-07T07:19:21;2.93;;;2.40;;
16073;SDS011;8141;52.664;5.074;2023-05-07T07:21:47;2.30;;;2.00;;
16073;SDS011;8141;52.664;5.074;2023-05-07T07:24:13;3.20;;;2.40;;
16073;SDS011;8141;52.664;5.074;2023-05-07T07:26:44;4.23;;;1.97;;
16073;SDS011;8141;52.664;5.074;2023-05-07T07:29:09;2.53;;;2.00;;
16073;SDS011;8141;52.664;5.074;2023-05-07T07:31:35;4.13;;;2.03;;
16073;SDS011;8141;52.664;5.074;2023-05-07T07:34:01;3.97;;;2.43;;
16073;SDS011;8141;52.664;5.074;2023-05-07T07:36:27;3.57;;;2.60;;
16073;SDS011;8141;52.664;5.074;2023-05-07T07:38:53;4.17;;;2.10;;
16073;SDS011;8141;52.664;5.074;2023-05-07T07:41:19;2.53;;;1.93;;
16073;SDS011;8141;52.664;5.074;2023-05-07T07:43:45;3.37;;;2.00;;
16073;SDS011;8141;52.664;5.074;2023-05-07T07:46:11;2.67;;;1.90;;
16073;SDS011;8141;52.664;5.074;2023-05-07T07:48:37;6.33;;;2.23;;
16073;SDS011;8141;52.664;5.074;2023-05-07T07:51:03;2.53;;;2.17;;
16073;SDS011;8141;52.664;5.074;2023-05-07T07:53:29;3.43;;;2.50;;
16073;SDS011;8141;52.664;5.074;2023-05-07T07:55:55;2.83;;;1.93;;
16073;SDS011;8141;52.664;5.074;2023-05-07T07:58:21;4.47;;;2.07;;
16073;SDS011;8141;52.664;5.074;2023-05-07T08:00:47;3.13;;;1.97;;
16073;SDS011;8141;52.664;5.074;2023-05-07T08:03:13;3.83;;;1.93;;
16073;SDS011;8141;52.664;5.074;2023-05-07T08:05:41;3.83;;;2.10;;
16073;SDS011;8141;52.664;5.074;2023-05-07T08:08:07;6.00;;;2.60;;
16073;SDS011;8141;52.664;5.074;2023-05-07T08:10:33;7.83;;;6.00;;
16073;SDS011;8141;52.664;5.074;2023-05-07T08:12:59;9.53;;;6.83;;
16073;SDS011;8141;52.664;5.074;2023-05-07T08:15:25;10.70;;;7.13;;
16073;SDS011;8141;52.664;5.074;2023-05-07T08:17:51;8.03;;;6.07;;
16073;SDS011;8141;52.664;5.074;2023-05-07T08:20:17;7.67;;;5.20;;
16073;SDS011;8141;52.664;5.074;2023-05-07T08:22:43;8.60;;;7.23;;
16073;SDS011;8141;52.664;5.074;2023-05-07T08:25:08;7.90;;;6.97;;
16073;SDS011;8141;52.664;5.074;2023-05-07T08:27:34;8.07;;;7.27;;
16073;SDS011;8141;52.664;5.074;2023-05-07T08:30:00;9.47;;;8.47;;
16073;SDS011;8141;52.664;5.074;2023-05-07T08:32:26;13.53;;;8.57;;
16073;SDS011;8141;52.664;5.074;2023-05-07T08:34:52;9.33;;;8.20;;
16073;SDS011;8141;52.664;5.074;2023-05-07T08:37:18;9.10;;;7.40;;
16073;SDS011;8141;52.664;5.074;2023-05-07T08:39:44;12.37;;;7.23;;
16073;SDS011;8141;52.664;5.074;2023-05-07T08:42:10;11.43;;;7.77;;
16073;SDS011;8141;52.664;5.074;2023-05-07T08:44:38;8.73;;;7.83;;
16073;SDS011;8141;52.664;5.074;2023-05-07T08:47:06;10.13;;;7.83;;
16073;SDS011;8141;52.664;5.074;2023-05-07T08:49:33;9.93;;;7.90;;
16073;SDS011;8141;52.664;5.074;2023-05-07T08:51:59;9.47;;;7.90;;
16073;SDS011;8141;52.664;5.074;2023-05-07T08:54:26;8.07;;;7.20;;
16073;SDS011;8141;52.664;5.074;2023-05-07T08:56:54;8.20;;;7.23;;
16073;SDS011;8141;52.664;5.074;2023-05-07T08:59:20;7.97;;;6.80;;
16073;SDS011;8141;52.664;5.074;2023-05-07T09:01:45;10.77;;;7.60;;
16073;SDS011;8141;52.664;5.074;2023-05-07T09:04:11;9.27;;;7.70;;
16073;SDS011;8141;52.664;5.074;2023-05-07T09:06:37;13.60;;;8.83;;
16073;SDS011;8141;52.664;5.074;2023-05-07T09:09:06;9.23;;;8.30;;
16073;SDS011;8141;52.664;5.074;2023-05-07T09:11:33;10.47;;;7.93;;
16073;SDS011;8141;52.664;5.074;2023-05-07T09:13:59;11.20;;;9.07;;
16073;SDS011;8141;52.664;5.074;2023-05-07T09:16:26;10.63;;;7.30;;
16073;SDS011;8141;52.664;5.074;2023-05-07T09:18:57;9.00;;;8.10;;
16073;SDS011;8141;52.664;5.074;2023-05-07T09:21:24;9.43;;;7.90;;
16073;SDS011;8141;52.664;5.074;2023-05-07T09:23:51;8.53;;;7.47;;
16073;SDS011;8141;52.664;5.074;2023-05-07T09:26:21;10.13;;;6.50;;
16073;SDS011;8141;52.664;5.074;2023-05-07T09:28:47;8.97;;;7.73;;
16073;SDS011;8141;52.664;5.074;2023-05-07T09:31:16;8.87;;;7.60;;
16073;SDS011;8141;52.664;5.074;2023-05-07T09:33:42;8.67;;;7.77;;
16073;SDS011;8141;52.664;5.074;2023-05-07T09:36:09;8.70;;;7.80;;
16073;SDS011;8141;52.664;5.074;2023-05-07T09:38:35;8.43;;;7.50;;
16073;SDS011;8141;52.664;5.074;2023-05-07T09:41:06;8.03;;;7.03;;
16073;SDS011;8141;52.664;5.074;2023-05-07T09:43:38;8.07;;;5.90;;
16073;SDS011;8141;52.664;5.074;2023-05-07T09:46:11;6.33;;;5.70;;
16073;SDS011;8141;52.664;5.074;2023-05-07T09:48:39;7.00;;;6.30;;
16073;SDS011;8141;52.664;5.074;2023-05-07T09:51:15;8.00;;;6.60;;
16073;SDS011;8141;52.664;5.074;2023-05-07T09:53:52;6.90;;;6.23;;
16073;SDS011;8141;52.664;5.074;2023-05-07T09:56:18;8.50;;;6.07;;
16073;SDS011;8141;52.664;5.074;2023-05-07T09:58:45;6.83;;;6.10;;
16073;SDS011;8141;52.664;5.074;2023-05-07T10:01:11;7.83;;;7.07;;
16073;SDS011;8141;52.664;5.074;2023-05-07T10:03:39;7.83;;;6.37;;
16073;SDS011;8141;52.664;5.074;2023-05-07T10:06:08;8.23;;;6.33;;
16073;SDS011;8141;52.664;5.074;2023-05-07T10:08:35;7.93;;;7.13;;
16073;SDS011;8141;52.664;5.074;2023-05-07T10:11:03;6.63;;;5.90;;
16073;SDS011;8141;52.664;5.074;2023-05-07T10:13:30;7.13;;;6.43;;
16073;SDS011;8141;52.664;5.074;2023-05-07T10:15:56;6.10;;;5.53;;
16073;SDS011;8141;52.664;5.074;2023-05-07T10:18:22;6.50;;;5.90;;
16073;SDS011;8141;52.664;5.074;2023-05-07T10:20:54;7.03;;;6.13;;
16073;SDS011;8141;52.664;5.074;2023-05-07T10:23:59;6.97;;;6.27;;
16073;SDS011;8141;52.664;5.074;2023-05-07T10:26:40;6.35;;;5.68;;
16073;SDS011;8141;52.664;5.074;2023-05-07T10:30:03;6.17;;;5.57;;
16073;SDS011;8141;52.664;5.074;2023-05-07T10:35:10;7.53;;;5.70;;
16073;SDS011;8141;52.664;5.074;2023-05-07T10:37:50;6.07;;;5.50;;
16073;SDS011;8141;52.664;5.074;2023-05-07T10:40:17;6.03;;;5.43;;
16073;SDS011;8141;52.664;5.074;2023-05-07T10:45:25;5.77;;;5.23;;
16073;SDS011;8141;52.664;5.074;2023-05-07T10:50:41;7.80;;;5.60;;
16073;SDS011;8141;52.664;5.074;2023-05-07T10:55:47;6.30;;;5.70;;
16073;SDS011;8141;52.664;5.074;2023-05-07T11:00:47;5.77;;;5.17;;
16073;SDS011;8141;52.664;5.074;2023-05-07T11:03:14;6.37;;;5.47;;
16073;SDS011;8141;52.664;5.074;2023-05-07T11:05:40;6.47;;;5.87;;
16073;SDS011;8141;52.664;5.074;2023-05-07T11:08:07;7.70;;;5.83;;
16073;SDS011;8141;52.664;5.074;2023-05-07T11:13:40;6.93;;;5.90;;
16073;SDS011;8141;52.664;5.074;2023-05-07T11:16:16;6.67;;;5.30;;
16073;SDS011;8141;52.664;5.074;2023-05-07T11:18:52;6.37;;;5.70;;
16073;SDS011;8141;52.664;5.074;2023-05-07T11:21:53;6.33;;;5.73;;
16073;SDS011;8141;52.664;5.074;2023-05-07T11:24:13;7.43;;;6.10;;
16073;SDS011;8141;52.664;5.074;2023-05-07T11:26:47;6.80;;;6.00;;
16073;SDS011;8141;52.664;5.074;2023-05-07T11:29:19;6.43;;;5.83;;
16073;SDS011;8141;52.664;5.074;2023-05-07T11:31:53;6.47;;;5.70;;
16073;SDS011;8141;52.664;5.074;2023-05-07T11:34:24;6.40;;;5.80;;
16073;SDS011;8141;52.664;5.074;2023-05-07T11:36:51;7.57;;;6.43;;
16073;SDS011;8141;52.664;5.074;2023-05-07T11:39:24;7.57;;;5.47;;
16073;SDS011;8141;52.664;5.074;2023-05-07T11:41:57;6.70;;;6.00;;
16073;SDS011;8141;52.664;5.074;2023-05-07T11:44:25;6.80;;;6.00;;
16073;SDS011;8141;52.664;5.074;2023-05-07T11:47:07;11.23;;;6.57;;
16073;SDS011;8141;52.664;5.074;2023-05-07T11:49:33;6.67;;;6.00;;
16073;SDS011;8141;52.664;5.074;2023-05-07T11:51:59;6.50;;;5.70;;
16073;SDS011;8141;52.664;5.074;2023-05-07T11:54:25;7.03;;;5.83;;
16073;SDS011;8141;52.664;5.074;2023-05-07T11:56:51;6.87;;;6.17;;
16073;SDS011;8141;52.664;5.074;2023-05-07T11:59:17;6.27;;;5.67;;
16073;SDS011;8141;52.664;5.074;2023-05-07T12:01:47;6.97;;;6.13;;
16073;SDS011;8141;52.664;5.074;2023-05-07T12:04:12;5.90;;;5.27;;
16073;SDS011;8141;52.664;5.074;2023-05-07T12:06:38;6.50;;;5.70;;
16073;SDS011;8141;52.664;5.074;2023-05-07T12:09:04;6.43;;;5.80;;
16073;SDS011;8141;52.664;5.074;2023-05-07T12:11:32;7.50;;;5.73;;
16073;SDS011;8141;52.664;5.074;2023-05-07T12:13:58;6.60;;;5.53;;
16073;SDS011;8141;52.664;5.074;2023-05-07T12:16:24;6.03;;;5.33;;
16073;SDS011;8141;52.664;5.074;2023-05-07T12:18:50;6.77;;;5.80;;
16073;SDS011;8141;52.664;5.074;2023-05-07T12:21:19;6.77;;;5.67;;
16073;SDS011;8141;52.664;5.074;2023-05-07T12:23:45;6.13;;;4.80;;
16073;SDS011;8141;52.664;5.074;2023-05-07T12:26:11;6.57;;;5.93;;
16073;SDS011;8141;52.664;5.074;2023-05-07T12:28:37;6.87;;;6.10;;
16073;SDS011;8141;52.664;5.074;2023-05-07T12:31:04;7.53;;;6.13;;
16073;SDS011;8141;52.664;5.074;2023-05-07T12:33:30;5.90;;;5.30;;
16073;SDS011;8141;52.664;5.074;2023-05-07T12:35:57;6.20;;;5.40;;
16073;SDS011;8141;52.664;5.074;2023-05-07T12:38:32;5.93;;;4.70;;
16073;SDS011;8141;52.664;5.074;2023-05-07T12:41:03;7.17;;;5.40;;
16073;SDS011;8141;52.664;5.074;2023-05-07T12:43:30;7.57;;;5.53;;
16073;SDS011;8141;52.664;5.074;2023-05-07T12:45:56;5.77;;;5.17;;
16073;SDS011;8141;52.664;5.074;2023-05-07T12:48:26;5.57;;;5.07;;
16073;SDS011;8141;52.664;5.074;2023-05-07T12:50:56;5.77;;;5.17;;
16073;SDS011;8141;52.664;5.074;2023-05-07T12:53:24;5.27;;;4.77;;
16073;SDS011;8141;52.664;5.074;2023-05-07T12:55:52;5.53;;;4.77;;
16073;SDS011;8141;52.664;5.074;2023-05-07T12:58:27;6.50;;;5.60;;
16073;SDS011;8141;52.664;5.074;2023-05-07T13:00:55;6.43;;;5.73;;
16073;SDS011;8141;52.664;5.074;2023-05-07T13:03:27;6.03;;;5.43;;
16073;SDS011;8141;52.664;5.074;2023-05-07T13:05:57;7.03;;;6.27;;
16073;SDS011;8141;52.664;5.074;2023-05-07T13:08:35;6.97;;;5.43;;
16073;SDS011;8141;52.664;5.074;2023-05-07T13:11:06;7.50;;;6.70;;
16073;SDS011;8141;52.664;5.074;2023-05-07T13:13:34;6.63;;;5.70;;
16073;SDS011;8141;52.664;5.074;2023-05-07T13:16:01;6.10;;;5.50;;
16073;SDS011;8141;52.664;5.074;2023-05-07T13:18:31;8.67;;;7.30;;
16073;SDS011;8141;52.664;5.074;2023-05-07T13:20:58;9.03;;;7.67;;
16073;SDS011;8141;52.664;5.074;2023-05-07T13:23:25;9.30;;;7.97;;
16073;SDS011;8141;52.664;5.074;2023-05-07T13:25:51;8.70;;;7.20;;
16073;SDS011;8141;52.664;5.074;2023-05-07T13:28:19;10.03;;;8.90;;
16073;SDS011;8141;52.664;5.074;2023-05-07T13:30:45;10.10;;;9.00;;
16073;SDS011;8141;52.664;5.074;2023-05-07T13:33:11;10.07;;;8.87;;
16073;SDS011;8141;52.664;5.074;2023-05-07T13:35:37;8.93;;;7.73;;
16073;SDS011;8141;52.664;5.074;2023-05-07T13:38:03;7.30;;;6.50;;
16073;SDS011;8141;52.664;5.074;2023-05-07T13:40:29;8.03;;;6.37;;
16073;SDS011;8141;52.664;5.074;2023-05-07T13:42:59;6.83;;;6.13;;
16073;SDS011;8141;52.664;5.074;2023-05-07T13:45:27;10.37;;;8.90;;
16073;SDS011;8141;52.664;5.074;2023-05-07T13:47:56;9.37;;;7.57;;
16073;SDS011;8141;52.664;5.074;2023-05-07T13:50:22;8.60;;;7.17;;
16073;SDS011;8141;52.664;5.074;2023-05-07T13:52:48;10.30;;;9.23;;
16073;SDS011;8141;52.664;5.074;2023-05-07T13:55:17;12.83;;;9.87;;
16073;SDS011;8141;52.664;5.074;2023-05-07T13:57:45;16.17;;;14.33;;
16073;SDS011;8141;52.664;5.074;2023-05-07T14:00:12;17.97;;;14.13;;
16073;SDS011;8141;52.664;5.074;2023-05-07T14:02:39;19.20;;;16.73;;
16073;SDS011;8141;52.664;5.074;2023-05-07T14:05:06;16.90;;;15.10;;
16073;SDS011;8141;52.664;5.074;2023-05-07T14:07:32;16.80;;;14.50;;
16073;SDS011;8141;52.664;5.074;2023-05-07T14:09:58;19.33;;;15.00;;
16073;SDS011;8141;52.664;5.074;2023-05-07T14:12:24;18.40;;;15.40;;
16073;SDS011;8141;52.664;5.074;2023-05-07T14:14:50;19.20;;;15.60;;
16073;SDS011;8141;52.664;5.074;2023-05-07T14:17:16;16.70;;;14.90;;
16073;SDS011;8141;52.664;5.074;2023-05-07T14:19:42;16.90;;;15.07;;
16073;SDS011;8141;52.664;5.074;2023-05-07T14:22:08;19.93;;;16.43;;
16073;SDS011;8141;52.664;5.074;2023-05-07T14:24:34;17.53;;;14.63;;
16073;SDS011;8141;52.664;5.074;2023-05-07T14:27:00;20.70;;;16.30;;
16073;SDS011;8141;52.664;5.074;2023-05-07T14:29:26;18.87;;;14.60;;
16073;SDS011;8141;52.664;5.074;2023-05-07T14:31:52;17.70;;;15.00;;
16073;SDS011;8141;52.664;5.074;2023-05-07T14:34:18;18.10;;;14.83;;
16073;SDS011;8141;52.664;5.074;2023-05-07T14:36:44;16.10;;;13.00;;
16073;SDS011;8141;52.664;5.074;2023-05-07T14:39:09;15.97;;;14.23;;
16073;SDS011;8141;52.664;5.074;2023-05-07T14:41:35;15.93;;;13.70;;
16073;SDS011;8141;52.664;5.074;2023-05-07T14:44:01;16.80;;;13.13;;
16073;SDS011;8141;52.664;5.074;2023-05-07T14:46:28;17.87;;;14.80;;
16073;SDS011;8141;52.664;5.074;2023-05-07T14:48:54;16.87;;;14.40;;
16073;SDS011;8141;52.664;5.074;2023-05-07T14:51:21;18.17;;;14.17;;
16073;SDS011;8141;52.664;5.074;2023-05-07T14:53:49;16.93;;;14.03;;
16073;SDS011;8141;52.664;5.074;2023-05-07T14:56:15;17.23;;;14.27;;
16073;SDS011;8141;52.664;5.074;2023-05-07T14:58:42;16.27;;;13.53;;
16073;SDS011;8141;52.664;5.074;2023-05-07T15:01:08;19.03;;;14.00;;
16073;SDS011;8141;52.664;5.074;2023-05-07T15:03:34;17.67;;;14.73;;
16073;SDS011;8141;52.664;5.074;2023-05-07T15:06:01;13.77;;;12.27;;
16073;SDS011;8141;52.664;5.074;2023-05-07T15:08:27;13.40;;;12.00;;
16073;SDS011;8141;52.664;5.074;2023-05-07T15:10:53;13.07;;;10.93;;
16073;SDS011;8141;52.664;5.074;2023-05-07T15:13:20;14.70;;;12.30;;
16073;SDS011;8141;52.664;5.074;2023-05-07T15:15:46;14.93;;;12.20;;